createdAt,value
2022-10-30T00:00:59.132Z,966.29
2022-10-30T00:01:59.284Z,966.27
2022-10-30T00:03:59.147Z,966.28
2022-10-30T00:04:59.163Z,966.27
2022-10-30T00:05:59.225Z,966.26
2022-10-30T00:06:59.296Z,966.28
2022-10-30T00:07:59.445Z,966.26
2022-10-30T00:09:59.174Z,966.22
2022-10-30T00:10:59.168Z,966.26
2022-10-30T00:11:59.152Z,966.24
2022-10-30T00:12:59.166Z,966.27
2022-10-30T00:13:59.271Z,966.23
2022-10-30T00:14:59.352Z,966.27
2022-10-30T00:15:59.312Z,966.26
2022-10-30T00:16:59.167Z,966.24
2022-10-30T00:17:59.625Z,966.2
2022-10-30T00:18:59.203Z,966.22
2022-10-30T00:19:59.172Z,966.18
2022-10-30T00:22:59.708Z,966.21
2022-10-30T00:23:59.256Z,966.15
2022-10-30T00:24:59.314Z,966.17
2022-10-30T00:25:59.279Z,966.14
2022-10-30T00:26:59.198Z,966.22
2022-10-30T00:27:59.349Z,966.11
2022-10-30T00:28:59.291Z,966.17
2022-10-30T00:30:59.289Z,966.18
2022-10-30T00:32:59.629Z,966.13
2022-10-30T00:33:59.245Z,966.22
2022-10-30T00:34:59.298Z,966.17
2022-10-30T00:35:59.371Z,966.26
2022-10-30T00:36:59.340Z,966.24
2022-10-30T00:37:59.638Z,966.26
2022-10-30T00:38:59.379Z,966.27
2022-10-30T00:39:59.181Z,966.28
2022-10-30T00:40:59.307Z,966.25
2022-10-30T00:41:59.251Z,966.26
2022-10-30T00:42:59.232Z,966.24
2022-10-30T00:43:59.310Z,966.23
2022-10-30T00:45:59.346Z,966.26
2022-10-30T00:46:59.318Z,966.27
2022-10-30T00:48:59.366Z,966.24
2022-10-30T00:49:59.246Z,966.23
2022-10-30T00:51:59.249Z,966.2
2022-10-30T00:52:59.607Z,966.21
2022-10-30T00:53:59.267Z,966.23
2022-10-30T00:54:59.364Z,966.2
2022-10-30T00:55:59.432Z,966.19
2022-10-30T00:57:00.696Z,966.17
2022-10-30T00:57:59.365Z,966.2
2022-10-30T00:58:59.343Z,966.14
2022-10-30T00:59:59.289Z,966.12
2022-10-30T01:00:59.418Z,966.1
2022-10-30T01:01:59.364Z,966.11
2022-10-30T01:02:59.646Z,966.06
2022-10-30T01:03:59.282Z,966.07
2022-10-30T01:04:59.412Z,966.09
2022-10-30T01:06:59.377Z,966.04
2022-10-30T01:07:59.664Z,966.11
2022-10-30T01:09:00.097Z,966.04
2022-10-30T01:09:59.383Z,966.06
2022-10-30T01:10:59.293Z,966.01
2022-10-30T01:11:59.415Z,966.04
2022-10-30T01:12:59.302Z,966.02
2022-10-30T01:13:59.348Z,965.99
2022-10-30T01:15:59.470Z,965.97
2022-10-30T01:17:59.597Z,965.96
2022-10-30T01:19:59.406Z,965.91
2022-10-30T01:20:59.424Z,965.95
2022-10-30T01:21:59.329Z,965.94
2022-10-30T01:23:59.434Z,965.96
2022-10-30T01:24:59.402Z,965.94
2022-10-30T01:25:59.478Z,965.9
2022-10-30T01:27:59.356Z,965.91
2022-10-30T01:29:59.449Z,965.88
2022-10-30T01:30:59.395Z,965.89
2022-10-30T01:31:59.480Z,965.84
2022-10-30T01:32:59.772Z,965.88
2022-10-30T01:34:00.404Z,965.83
2022-10-30T01:34:59.375Z,965.82
2022-10-30T01:35:59.470Z,965.85
2022-10-30T01:36:59.366Z,965.83
2022-10-30T01:37:59.688Z,965.82
2022-10-30T01:38:59.446Z,965.8
2022-10-30T01:40:59.482Z,965.79
2022-10-30T01:41:59.457Z,965.73
2022-10-30T01:42:59.530Z,965.77
2022-10-30T01:43:59.384Z,965.74
2022-10-30T01:46:59.613Z,965.77
2022-10-30T01:49:00.518Z,965.76
2022-10-30T01:49:59.403Z,965.73
2022-10-30T01:51:59.531Z,965.77
2022-10-30T01:52:59.785Z,965.74
2022-10-30T01:53:59.405Z,965.72
2022-10-30T01:54:59.548Z,965.76
2022-10-30T01:55:59.407Z,965.72
2022-10-30T01:56:59.591Z,965.7
2022-10-30T01:57:59.541Z,965.71
2022-10-30T01:58:59.428Z,965.67
2022-10-30T02:00:00.563Z,965.66
2022-10-30T02:02:59.881Z,965.63
2022-10-30T02:03:59.612Z,965.62
2022-10-30T02:04:59.451Z,965.6
2022-10-30T02:05:59.494Z,965.61
2022-10-30T02:06:59.470Z,965.59
2022-10-30T02:07:59.724Z,965.6
2022-10-30T02:08:59.502Z,965.58
2022-10-30T02:09:59.564Z,965.63
2022-10-30T02:10:59.534Z,965.58
2022-10-30T02:11:59.596Z,965.55
2022-10-30T02:12:59.573Z,965.59
2022-10-30T02:13:59.548Z,965.56
2022-10-30T02:14:59.609Z,965.55
2022-10-30T02:15:59.614Z,965.54
2022-10-30T02:16:59.542Z,965.52
2022-10-30T02:17:59.841Z,965.54
2022-10-30T02:19:59.563Z,965.53
2022-10-30T02:20:59.511Z,965.54
2022-10-30T02:21:59.629Z,965.55
2022-10-30T02:22:59.761Z,965.57
2022-10-30T02:24:00.716Z,965.6
2022-10-30T02:24:59.586Z,965.62
2022-10-30T02:25:59.557Z,965.61
2022-10-30T02:27:59.542Z,965.62
2022-10-30T02:30:59.508Z,965.59
2022-10-30T02:31:59.567Z,965.63
2022-10-30T02:32:59.898Z,965.6
2022-10-30T02:33:59.597Z,965.64
2022-10-30T02:34:59.572Z,965.63
2022-10-30T02:35:59.657Z,965.62
2022-10-30T02:36:59.606Z,965.6
2022-10-30T02:37:59.850Z,965.58
2022-10-30T02:38:59.540Z,965.61
2022-10-30T02:39:59.615Z,965.6
2022-10-30T02:40:59.576Z,965.62
2022-10-30T02:41:59.529Z,965.61
2022-10-30T02:42:59.539Z,965.62
2022-10-30T02:43:59.585Z,965.64
2022-10-30T02:45:59.608Z,965.62
2022-10-30T02:46:59.591Z,965.65
2022-10-30T02:48:00.057Z,965.62
2022-10-30T02:48:59.611Z,965.66
2022-10-30T02:50:59.699Z,965.65
2022-10-30T02:51:59.632Z,965.59
2022-10-30T02:52:59.950Z,965.57
2022-10-30T02:53:59.667Z,965.56
2022-10-30T02:54:59.665Z,965.55
2022-10-30T02:55:59.699Z,965.51
2022-10-30T02:59:59.689Z,965.49
2022-10-30T03:00:59.666Z,965.47
2022-10-30T03:01:59.746Z,965.48
2022-10-30T03:02:59.675Z,965.46
2022-10-30T03:03:59.623Z,965.47
2022-10-30T03:05:59.607Z,965.45
2022-10-30T03:06:59.648Z,965.42
2022-10-30T03:08:59.584Z,965.43
2022-10-30T03:09:59.646Z,965.41
2022-10-30T03:10:59.584Z,965.44
2022-10-30T03:11:59.682Z,965.4
2022-10-30T03:12:59.656Z,965.38
2022-10-30T03:13:59.727Z,965.39
2022-10-30T03:14:59.687Z,965.38
2022-10-30T03:15:59.760Z,965.35
2022-10-30T03:16:59.797Z,965.36
2022-10-30T03:17:59.819Z,965.35
2022-10-30T03:19:59.738Z,965.42
2022-10-30T03:20:59.687Z,965.39
2022-10-30T03:22:00.576Z,965.41
2022-10-30T03:22:59.729Z,965.48
2022-10-30T03:25:59.700Z,965.54
2022-10-30T03:26:59.719Z,965.5
2022-10-30T03:28:59.743Z,965.49
2022-10-30T03:29:59.638Z,965.5
2022-10-30T03:30:59.788Z,965.49
2022-10-30T03:31:59.747Z,965.47
2022-10-30T03:32:59.999Z,965.44
2022-10-30T03:33:59.785Z,965.46
2022-10-30T03:34:59.760Z,965.47
2022-10-30T03:36:59.798Z,965.51
2022-10-30T03:37:59.656Z,965.45
2022-10-30T03:39:59.785Z,965.43
2022-10-30T03:40:59.664Z,965.39
2022-10-30T03:41:59.719Z,965.43
2022-10-30T03:43:00.080Z,965.45
2022-10-30T03:43:59.765Z,965.44
2022-10-30T03:44:59.833Z,965.46
2022-10-30T03:46:59.871Z,965.48
2022-10-30T03:47:59.995Z,965.51
2022-10-30T03:48:59.803Z,965.47
2022-10-30T03:49:59.668Z,965.53
2022-10-30T03:50:59.745Z,965.55
2022-10-30T03:51:59.797Z,965.54
2022-10-30T03:52:59.779Z,965.55
2022-10-30T03:53:59.688Z,965.53
2022-10-30T03:54:59.687Z,965.55
2022-10-30T03:55:59.776Z,965.52
2022-10-30T03:56:59.740Z,965.54
2022-10-30T03:58:00.013Z,965.55
2022-10-30T03:59:59.795Z,965.56
2022-10-30T04:00:59.729Z,965.53
2022-10-30T04:01:59.895Z,965.54
2022-10-30T04:02:59.934Z,965.53
2022-10-30T04:03:59.826Z,965.5
2022-10-30T04:04:59.718Z,965.51
2022-10-30T04:05:59.782Z,965.53
2022-10-30T04:07:59.805Z,965.51
2022-10-30T04:09:59.976Z,965.53
2022-10-30T04:10:59.828Z,965.5
2022-10-30T04:11:59.764Z,965.48
2022-10-30T04:12:59.979Z,965.5
2022-10-30T04:14:59.920Z,965.51
2022-10-30T04:15:59.841Z,965.5
2022-10-30T04:18:03.934Z,965.51
2022-10-30T04:18:59.837Z,965.5
2022-10-30T04:19:59.853Z,965.48
2022-10-30T04:20:59.888Z,965.54
2022-10-30T04:21:59.853Z,965.53
2022-10-30T04:22:59.839Z,965.52
2022-10-30T04:23:59.819Z,965.53
2022-10-30T04:24:59.808Z,965.57
2022-10-30T04:26:59.801Z,965.58
2022-10-30T04:28:00.014Z,965.59
2022-10-30T04:28:59.920Z,965.58
2022-10-30T04:29:59.886Z,965.6
2022-10-30T04:30:59.773Z,965.59
2022-10-30T04:31:59.947Z,965.63
2022-10-30T04:33:59.869Z,965.64
2022-10-30T04:35:59.907Z,965.66
2022-10-30T04:36:59.779Z,965.68
2022-10-30T04:37:59.858Z,965.64
2022-10-30T04:38:59.898Z,965.63
2022-10-30T04:39:59.809Z,965.65
2022-10-30T04:40:59.831Z,965.66
2022-10-30T04:43:59.851Z,965.62
2022-10-30T04:44:59.821Z,965.64
2022-10-30T04:46:59.966Z,965.61
2022-10-30T04:48:00.178Z,965.63
2022-10-30T04:50:59.828Z,965.6
2022-10-30T04:51:59.817Z,965.56
2022-10-30T04:52:59.959Z,965.6
2022-10-30T04:53:59.817Z,965.56
2022-10-30T04:54:59.891Z,965.54
2022-10-30T04:56:59.849Z,965.51
2022-10-30T04:58:00.307Z,965.53
2022-10-30T04:59:01.212Z,965.52
2022-10-30T04:59:59.892Z,965.54
2022-10-30T05:01:00.439Z,965.55
2022-10-30T05:02:00.136Z,965.49
2022-10-30T05:02:59.856Z,965.48
2022-10-30T05:03:59.900Z,965.47
2022-10-30T05:05:59.916Z,965.43
2022-10-30T05:06:59.947Z,965.41
2022-10-30T05:08:00.235Z,965.42
2022-10-30T05:08:59.899Z,965.4
2022-10-30T05:09:59.936Z,965.41
2022-10-30T05:12:00.191Z,965.42
2022-10-30T05:13:00.023Z,965.44
2022-10-30T05:13:59.986Z,965.45
2022-10-30T05:14:59.953Z,965.44
2022-10-30T05:16:00.029Z,965.43
2022-10-30T05:16:59.881Z,965.44
2022-10-30T05:18:59.933Z,965.45
2022-10-30T05:19:59.992Z,965.43
2022-10-30T05:20:59.885Z,965.45
2022-10-30T05:21:59.900Z,965.43
2022-10-30T05:23:00.037Z,965.44
2022-10-30T05:23:59.895Z,965.43
2022-10-30T05:25:00.037Z,965.39
2022-10-30T05:25:59.999Z,965.43
2022-10-30T05:26:59.964Z,965.34
2022-10-30T05:28:01.195Z,965.38
2022-10-30T05:29:59.947Z,965.32
2022-10-30T05:31:00.072Z,965.34
2022-10-30T05:31:59.953Z,965.3
2022-10-30T05:33:00.309Z,965.33
2022-10-30T05:34:00.644Z,965.29
2022-10-30T05:35:59.975Z,965.34
2022-10-30T05:36:59.940Z,965.3
2022-10-30T05:37:59.914Z,965.31
2022-10-30T05:38:59.932Z,965.32
2022-10-30T05:39:59.933Z,965.28
2022-10-30T05:42:00.269Z,965.31
2022-10-30T05:43:00.204Z,965.29
2022-10-30T05:43:59.926Z,965.27
2022-10-30T05:45:01.599Z,965.26
2022-10-30T05:46:00.178Z,965.27
2022-10-30T05:48:00.341Z,965.28
2022-10-30T05:49:00.058Z,965.3
2022-10-30T05:50:00.020Z,965.32
2022-10-30T05:51:00.004Z,965.33
2022-10-30T05:51:59.956Z,965.35
2022-10-30T05:53:00.044Z,965.39
2022-10-30T05:54:00.043Z,965.35
2022-10-30T05:54:59.965Z,965.36
2022-10-30T05:56:00.030Z,965.35
2022-10-30T05:58:59.988Z,965.39
2022-10-30T06:01:00.063Z,965.37
2022-10-30T06:02:00.077Z,965.38
2022-10-30T06:03:00.488Z,965.39
2022-10-30T06:04:00.172Z,965.4
2022-10-30T06:05:00.164Z,965.43
2022-10-30T06:06:00.122Z,965.41
2022-10-30T06:07:00.089Z,965.45
2022-10-30T06:08:01.141Z,965.49
2022-10-30T06:09:00.012Z,965.46
2022-10-30T06:10:00.110Z,965.48
2022-10-30T06:11:00.072Z,965.47
2022-10-30T06:13:00.682Z,965.46
2022-10-30T06:14:00.011Z,965.47
2022-10-30T06:15:00.144Z,965.48
2022-10-30T06:16:00.095Z,965.46
2022-10-30T06:17:00.031Z,965.48
2022-10-30T06:18:00.424Z,965.46
2022-10-30T06:19:00.108Z,965.49
2022-10-30T06:20:00.122Z,965.5
2022-10-30T06:21:00.023Z,965.51
2022-10-30T06:22:00.027Z,965.52
2022-10-30T06:23:01.262Z,965.5
2022-10-30T06:25:00.144Z,965.52
2022-10-30T06:26:00.037Z,965.54
2022-10-30T06:27:00.152Z,965.52
2022-10-30T06:28:00.452Z,965.54
2022-10-30T06:29:00.186Z,965.55
2022-10-30T06:30:00.137Z,965.54
2022-10-30T06:31:00.122Z,965.56
2022-10-30T06:32:02.171Z,965.52
2022-10-30T06:33:00.544Z,965.56
2022-10-30T06:34:00.116Z,965.54
2022-10-30T06:35:00.186Z,965.59
2022-10-30T06:36:00.056Z,965.57
2022-10-30T06:37:00.270Z,965.58
2022-10-30T06:38:00.310Z,965.59
2022-10-30T06:40:00.301Z,965.62
2022-10-30T06:41:00.216Z,965.58
2022-10-30T06:43:00.563Z,965.57
2022-10-30T06:44:00.210Z,965.54
2022-10-30T06:45:00.084Z,965.53
2022-10-30T06:46:00.169Z,965.56
2022-10-30T06:47:00.198Z,965.54
2022-10-30T06:48:00.418Z,965.53
2022-10-30T06:49:00.145Z,965.57
2022-10-30T06:50:00.101Z,965.53
2022-10-30T06:51:00.104Z,965.56
2022-10-30T06:53:00.213Z,965.55
2022-10-30T06:54:00.189Z,965.53
2022-10-30T06:55:00.260Z,965.55
2022-10-30T06:56:00.104Z,965.57
2022-10-30T06:57:00.130Z,965.56
2022-10-30T06:58:00.396Z,965.58
2022-10-30T06:59:00.301Z,965.59
2022-10-30T07:01:00.197Z,965.58
2022-10-30T07:02:00.935Z,965.62
2022-10-30T07:03:00.924Z,965.61
2022-10-30T07:04:00.261Z,965.64
2022-10-30T07:05:00.128Z,965.63
2022-10-30T07:06:00.192Z,965.64
2022-10-30T07:09:00.219Z,965.65
2022-10-30T07:10:00.196Z,965.69
2022-10-30T07:11:00.231Z,965.64
2022-10-30T07:12:04.163Z,965.66
2022-10-30T07:13:00.590Z,965.69
2022-10-30T07:15:00.156Z,965.72
2022-10-30T07:16:00.286Z,965.75
2022-10-30T07:17:00.239Z,965.74
2022-10-30T07:18:00.709Z,965.75
2022-10-30T07:20:00.192Z,965.76
2022-10-30T07:21:00.217Z,965.72
2022-10-30T07:22:00.277Z,965.79
2022-10-30T07:24:00.239Z,965.82
2022-10-30T07:25:00.318Z,965.83
2022-10-30T07:27:00.418Z,965.82
2022-10-30T07:28:00.651Z,965.83
2022-10-30T07:29:00.252Z,965.86
2022-10-30T07:30:01.642Z,965.87
2022-10-30T07:31:00.295Z,965.84
2022-10-30T07:32:03.741Z,965.88
2022-10-30T07:33:00.950Z,965.9
2022-10-30T07:34:00.301Z,965.85
2022-10-30T07:35:00.210Z,965.86
2022-10-30T07:36:01.166Z,965.91
2022-10-30T07:37:00.312Z,965.95
2022-10-30T07:38:00.275Z,965.93
2022-10-30T07:40:00.398Z,965.91
2022-10-30T07:41:00.291Z,965.9
2022-10-30T07:42:00.271Z,965.89
2022-10-30T07:43:00.936Z,965.86
2022-10-30T07:44:00.285Z,965.87
2022-10-30T07:45:00.420Z,965.89
2022-10-30T07:46:00.309Z,965.85
2022-10-30T07:47:00.396Z,965.87
2022-10-30T07:48:00.633Z,965.85
2022-10-30T07:49:00.330Z,965.9
2022-10-30T07:50:00.280Z,965.92
2022-10-30T07:51:00.242Z,965.89
2022-10-30T07:53:00.407Z,965.94
2022-10-30T07:54:00.359Z,965.95
2022-10-30T07:55:00.329Z,965.94
2022-10-30T07:56:00.400Z,965.96
2022-10-30T07:57:00.368Z,965.97
2022-10-30T07:59:00.410Z,966.03
2022-10-30T08:01:00.428Z,966.1
2022-10-30T08:02:00.418Z,966.14
2022-10-30T08:03:00.783Z,966.21
2022-10-30T08:04:00.330Z,966.24
2022-10-30T08:05:00.410Z,966.21
2022-10-30T08:06:00.427Z,966.28
2022-10-30T08:07:00.344Z,966.24
2022-10-30T08:08:00.806Z,966.15
2022-10-30T08:10:00.400Z,966.13
2022-10-30T08:11:01.422Z,966.11
2022-10-30T08:12:00.282Z,966.1
2022-10-30T08:13:00.349Z,966.08
2022-10-30T08:14:00.427Z,966.03
2022-10-30T08:15:00.390Z,966.05
2022-10-30T08:16:00.366Z,966.02
2022-10-30T08:17:00.316Z,965.98
2022-10-30T08:19:00.374Z,965.99
2022-10-30T08:20:00.438Z,965.98
2022-10-30T08:22:00.408Z,965.99
2022-10-30T08:23:00.762Z,966
2022-10-30T08:24:00.409Z,966.02
2022-10-30T08:25:00.377Z,966.08
2022-10-30T08:26:00.417Z,966.1
2022-10-30T08:27:00.406Z,966.12
2022-10-30T08:28:00.382Z,966.13
2022-10-30T08:29:00.332Z,966.14
2022-10-30T08:31:00.545Z,966.15
2022-10-30T08:32:00.342Z,966.16
2022-10-30T08:33:00.733Z,966.18
2022-10-30T08:35:00.455Z,966.21
2022-10-30T08:36:00.437Z,966.2
2022-10-30T08:37:01.578Z,966.18
2022-10-30T08:38:00.748Z,966.2
2022-10-30T08:40:00.482Z,966.24
2022-10-30T08:41:00.484Z,966.22
2022-10-30T08:42:00.426Z,966.19
2022-10-30T08:43:00.397Z,966.16
2022-10-30T08:44:00.463Z,966.18
2022-10-30T08:45:00.445Z,966.19
2022-10-30T08:46:00.399Z,966.16
2022-10-30T08:47:00.485Z,966.15
2022-10-30T08:48:01.082Z,966.16
2022-10-30T08:51:00.440Z,966.15
2022-10-30T08:52:01.677Z,966.18
2022-10-30T08:54:00.388Z,966.21
2022-10-30T08:55:00.406Z,966.22
2022-10-30T08:57:00.395Z,966.17
2022-10-30T08:58:00.433Z,966.16
2022-10-30T08:59:00.494Z,966.18
2022-10-30T09:01:01.667Z,966.16
2022-10-30T09:02:00.584Z,966.14
2022-10-30T09:03:01.025Z,966.17
2022-10-30T09:04:00.406Z,966.12
2022-10-30T09:05:00.548Z,966.13
2022-10-30T09:06:00.446Z,966.08
2022-10-30T09:07:00.526Z,966.12
2022-10-30T09:08:00.886Z,966.09
2022-10-30T09:09:00.568Z,966.04
2022-10-30T09:10:00.531Z,966.02
2022-10-30T09:11:00.498Z,966
2022-10-30T09:12:00.462Z,965.96
2022-10-30T09:13:00.534Z,965.93
2022-10-30T09:14:00.504Z,965.95
2022-10-30T09:15:00.570Z,965.94
2022-10-30T09:17:00.599Z,965.93
2022-10-30T09:18:00.984Z,965.96
2022-10-30T09:19:00.547Z,965.92
2022-10-30T09:20:00.520Z,965.91
2022-10-30T09:21:01.725Z,965.93
2022-10-30T09:22:00.547Z,965.94
2022-10-30T09:23:00.928Z,965.9
2022-10-30T09:24:00.473Z,965.91
2022-10-30T09:25:00.467Z,965.9
2022-10-30T09:26:00.523Z,965.93
2022-10-30T09:27:01.919Z,965.88
2022-10-30T09:28:00.573Z,965.94
2022-10-30T09:29:00.459Z,965.92
2022-10-30T09:31:00.526Z,965.91
2022-10-30T09:32:00.545Z,965.92
2022-10-30T09:33:00.696Z,965.91
2022-10-30T09:34:00.567Z,965.88
2022-10-30T09:35:00.548Z,965.92
2022-10-30T09:36:00.481Z,965.93
2022-10-30T09:37:00.574Z,965.95
2022-10-30T09:38:01.673Z,965.93
2022-10-30T09:40:00.583Z,965.92
2022-10-30T09:41:00.658Z,965.91
2022-10-30T09:42:00.616Z,965.9
2022-10-30T09:43:00.578Z,965.92
2022-10-30T09:44:00.572Z,965.86
2022-10-30T09:46:00.518Z,965.82
2022-10-30T09:47:00.581Z,965.88
2022-10-30T09:48:00.942Z,965.87
2022-10-30T09:49:00.635Z,965.88
2022-10-30T09:51:00.624Z,965.83
2022-10-30T09:52:00.593Z,965.84
2022-10-30T09:53:00.817Z,965.83
2022-10-30T09:54:00.632Z,965.79
2022-10-30T09:55:00.538Z,965.83
2022-10-30T09:56:00.660Z,965.81
2022-10-30T09:58:00.718Z,965.84
2022-10-30T09:59:00.582Z,965.85
2022-10-30T10:00:00.636Z,965.82
2022-10-30T10:01:04.493Z,965.87
2022-10-30T10:02:01.226Z,965.88
2022-10-30T10:03:01.019Z,965.85
2022-10-30T10:04:00.614Z,965.88
2022-10-30T10:06:00.708Z,965.87
2022-10-30T10:07:00.640Z,965.85
2022-10-30T10:08:00.860Z,965.83
2022-10-30T10:09:00.645Z,965.84
2022-10-30T10:10:00.796Z,965.83
2022-10-30T10:11:00.683Z,965.86
2022-10-30T10:12:00.655Z,965.85
2022-10-30T10:13:01.883Z,965.86
2022-10-30T10:14:00.581Z,965.85
2022-10-30T10:15:00.582Z,965.87
2022-10-30T10:16:00.577Z,965.85
2022-10-30T10:17:00.692Z,965.89
2022-10-30T10:18:00.605Z,965.87
2022-10-30T10:20:00.596Z,965.83
2022-10-30T10:21:00.665Z,965.79
2022-10-30T10:22:00.600Z,965.81
2022-10-30T10:24:00.653Z,965.76
2022-10-30T10:25:00.621Z,965.81
2022-10-30T10:26:00.622Z,965.78
2022-10-30T10:27:00.608Z,965.8
2022-10-30T10:28:00.615Z,965.78
2022-10-30T10:30:00.740Z,965.74
2022-10-30T10:31:00.761Z,965.77
2022-10-30T10:32:00.715Z,965.76
2022-10-30T10:33:00.937Z,965.77
2022-10-30T10:34:00.635Z,965.78
2022-10-30T10:36:00.753Z,965.77
2022-10-30T10:37:00.643Z,965.78
2022-10-30T10:38:00.980Z,965.8
2022-10-30T10:39:00.638Z,965.77
2022-10-30T10:40:00.658Z,965.81
2022-10-30T10:41:00.729Z,965.77
2022-10-30T10:42:00.803Z,965.76
2022-10-30T10:44:00.728Z,965.81
2022-10-30T10:45:00.893Z,965.82
2022-10-30T10:46:00.651Z,965.84
2022-10-30T10:48:01.359Z,965.83
2022-10-30T10:49:00.737Z,965.81
2022-10-30T10:50:00.743Z,965.8
2022-10-30T10:52:00.730Z,965.76
2022-10-30T10:53:00.972Z,965.8
2022-10-30T10:54:01.942Z,965.77
2022-10-30T10:55:00.794Z,965.78
2022-10-30T10:56:00.690Z,965.8
2022-10-30T10:57:00.689Z,965.78
2022-10-30T10:58:00.790Z,965.77
2022-10-30T10:59:00.693Z,965.72
2022-10-30T11:00:00.699Z,965.74
2022-10-30T11:01:00.836Z,965.75
2022-10-30T11:02:00.830Z,965.7
2022-10-30T11:03:02.452Z,965.73
2022-10-30T11:05:00.760Z,965.74
2022-10-30T11:06:00.844Z,965.71
2022-10-30T11:07:00.703Z,965.7
2022-10-30T11:08:02.224Z,965.69
2022-10-30T11:09:00.716Z,965.68
2022-10-30T11:10:00.718Z,965.71
2022-10-30T11:11:00.882Z,965.73
2022-10-30T11:12:00.833Z,965.71
2022-10-30T11:13:01.075Z,965.66
2022-10-30T11:14:00.885Z,965.67
2022-10-30T11:15:00.723Z,965.7
2022-10-30T11:16:00.811Z,965.66
2022-10-30T11:17:00.872Z,965.68
2022-10-30T11:18:00.934Z,965.64
2022-10-30T11:19:00.822Z,965.57
2022-10-30T11:20:02.100Z,965.49
2022-10-30T11:21:00.804Z,965.53
2022-10-30T11:22:00.745Z,965.43
2022-10-30T11:23:00.984Z,965.5
2022-10-30T11:24:00.852Z,965.47
2022-10-30T11:25:00.816Z,965.5
2022-10-30T11:26:00.760Z,965.36
2022-10-30T11:27:00.756Z,965.4
2022-10-30T11:28:00.773Z,965.42
2022-10-30T11:29:00.885Z,965.37
2022-10-30T11:31:00.809Z,965.38
2022-10-30T11:32:00.805Z,965.43
2022-10-30T11:33:00.881Z,965.37
2022-10-30T11:35:00.771Z,965.36
2022-10-30T11:37:00.929Z,965.4
2022-10-30T11:38:00.817Z,965.3
2022-10-30T11:39:00.884Z,965.31
2022-10-30T11:40:00.785Z,965.3
2022-10-30T11:41:00.798Z,965.28
2022-10-30T11:42:00.888Z,965.29
2022-10-30T11:43:01.403Z,965.27
2022-10-30T11:44:00.795Z,965.26
2022-10-30T11:45:00.788Z,965.27
2022-10-30T11:46:00.816Z,965.26
2022-10-30T11:47:00.813Z,965.24
2022-10-30T11:48:02.397Z,965.3
2022-10-30T11:50:00.931Z,965.31
2022-10-30T11:51:00.899Z,965.3
2022-10-30T11:52:00.892Z,965.29
2022-10-30T11:53:00.947Z,965.27
2022-10-30T11:54:00.909Z,965.31
2022-10-30T11:55:00.834Z,965.26
2022-10-30T11:56:00.968Z,965.29
2022-10-30T11:57:00.898Z,965.3
2022-10-30T11:58:01.231Z,965.24
2022-10-30T11:59:00.823Z,965.26
2022-10-30T12:00:05.138Z,965.23
2022-10-30T12:01:01.820Z,965.25
2022-10-30T12:02:01.036Z,965.2
2022-10-30T12:03:01.091Z,965.22
2022-10-30T12:04:00.915Z,965.2
2022-10-30T12:06:00.932Z,965.21
2022-10-30T12:07:01.883Z,965.25
2022-10-30T12:08:00.866Z,965.23
2022-10-30T12:09:00.921Z,965.25
2022-10-30T12:11:01.035Z,965.24
2022-10-30T12:12:05.829Z,965.22
2022-10-30T12:13:01.478Z,965.21
2022-10-30T12:14:00.960Z,965.23
2022-10-30T12:16:00.926Z,965.2
2022-10-30T12:17:00.989Z,965.14
2022-10-30T12:18:00.881Z,965.16
2022-10-30T12:19:01.004Z,965.17
2022-10-30T12:20:00.968Z,965.14
2022-10-30T12:23:01.330Z,965.1
2022-10-30T12:24:00.917Z,965.09
2022-10-30T12:25:01.006Z,965.11
2022-10-30T12:28:01.381Z,965.12
2022-10-30T12:29:00.946Z,965.15
2022-10-30T12:30:08.664Z,965.13
2022-10-30T12:31:01.015Z,965.1
2022-10-30T12:32:00.933Z,965.17
2022-10-30T12:33:01.151Z,965.1
2022-10-30T12:34:00.992Z,965.15
2022-10-30T12:35:01.000Z,965.13
2022-10-30T12:36:00.926Z,965.11
2022-10-30T12:38:01.304Z,965.09
2022-10-30T12:39:01.076Z,965.07
2022-10-30T12:40:00.942Z,965
2022-10-30T12:41:02.093Z,964.98
2022-10-30T12:42:00.943Z,965
2022-10-30T12:43:00.942Z,964.98
2022-10-30T12:44:01.013Z,964.92
2022-10-30T12:45:00.950Z,964.97
2022-10-30T12:46:00.951Z,964.94
2022-10-30T12:47:01.016Z,964.97
2022-10-30T12:48:01.349Z,964.99
2022-10-30T12:50:01.248Z,964.94
2022-10-30T12:51:01.010Z,964.96
2022-10-30T12:52:00.972Z,964.94
2022-10-30T12:54:01.159Z,964.93
2022-10-30T12:55:00.984Z,964.88
2022-10-30T12:56:02.204Z,964.92
2022-10-30T12:57:00.982Z,964.87
2022-10-30T12:58:00.984Z,964.89
2022-10-30T12:59:01.136Z,964.85
2022-10-30T13:00:01.099Z,964.86
2022-10-30T13:01:01.018Z,964.84
2022-10-30T13:02:01.279Z,964.83
2022-10-30T13:03:01.361Z,964.85
2022-10-30T13:04:01.009Z,964.82
2022-10-30T13:05:01.021Z,964.83
2022-10-30T13:06:01.019Z,964.8
2022-10-30T13:07:01.003Z,964.79
2022-10-30T13:08:02.399Z,964.78
2022-10-30T13:09:01.019Z,964.75
2022-10-30T13:10:01.070Z,964.77
2022-10-30T13:11:01.153Z,964.72
2022-10-30T13:12:01.107Z,964.75
2022-10-30T13:13:01.071Z,964.74
2022-10-30T13:14:01.029Z,964.71
2022-10-30T13:15:01.097Z,964.72
2022-10-30T13:16:01.018Z,964.68
2022-10-30T13:17:01.018Z,964.71
2022-10-30T13:19:01.135Z,964.7
2022-10-30T13:20:01.161Z,964.72
2022-10-30T13:22:01.081Z,964.71
2022-10-30T13:23:01.247Z,964.7
2022-10-30T13:24:01.061Z,964.68
2022-10-30T13:25:03.486Z,964.7
2022-10-30T13:26:01.278Z,964.66
2022-10-30T13:27:01.061Z,964.65
2022-10-30T13:28:01.060Z,964.67
2022-10-30T13:29:01.166Z,964.65
2022-10-30T13:30:01.130Z,964.69
2022-10-30T13:31:01.054Z,964.7
2022-10-30T13:32:01.169Z,964.64
2022-10-30T13:33:01.486Z,964.65
2022-10-30T13:34:01.071Z,964.64
2022-10-30T13:35:01.167Z,964.66
2022-10-30T13:37:02.438Z,964.68
2022-10-30T13:39:01.092Z,964.65
2022-10-30T13:40:02.472Z,964.72
2022-10-30T13:41:01.181Z,964.7
2022-10-30T13:42:01.087Z,964.69
2022-10-30T13:43:01.092Z,964.7
2022-10-30T13:44:01.183Z,964.69
2022-10-30T13:46:01.269Z,964.7
2022-10-30T13:47:01.221Z,964.68
2022-10-30T13:49:01.107Z,964.73
2022-10-30T13:50:01.189Z,964.72
2022-10-30T13:51:01.161Z,964.67
2022-10-30T13:52:01.230Z,964.7
2022-10-30T13:53:01.491Z,964.72
2022-10-30T13:54:01.268Z,964.68
2022-10-30T13:56:01.200Z,964.65
2022-10-30T13:57:01.274Z,964.67
2022-10-30T13:58:01.247Z,964.63
2022-10-30T13:59:01.206Z,964.64
2022-10-30T14:00:01.273Z,964.61
2022-10-30T14:01:01.315Z,964.65
2022-10-30T14:02:01.749Z,964.62
2022-10-30T14:03:01.458Z,964.61
2022-10-30T14:04:01.248Z,964.6
2022-10-30T14:06:01.215Z,964.61
2022-10-30T14:07:01.263Z,964.59
2022-10-30T14:09:01.297Z,964.58
2022-10-30T14:10:01.251Z,964.57
2022-10-30T14:11:01.277Z,964.56
2022-10-30T14:12:01.294Z,964.59
2022-10-30T14:13:01.482Z,964.56
2022-10-30T14:14:01.169Z,964.57
2022-10-30T14:15:01.162Z,964.55
2022-10-30T14:16:01.183Z,964.54
2022-10-30T14:17:01.182Z,964.55
2022-10-30T14:18:01.188Z,964.58
2022-10-30T14:19:01.267Z,964.57
2022-10-30T14:20:01.246Z,964.52
2022-10-30T14:21:01.192Z,964.53
2022-10-30T14:22:01.280Z,964.55
2022-10-30T14:23:01.386Z,964.51
2022-10-30T14:24:01.203Z,964.48
2022-10-30T14:26:01.338Z,964.47
2022-10-30T14:27:01.239Z,964.5
2022-10-30T14:28:01.512Z,964.49
2022-10-30T14:29:01.202Z,964.48
2022-10-30T14:31:01.211Z,964.46
2022-10-30T14:32:01.220Z,964.44
2022-10-30T14:33:01.211Z,964.47
2022-10-30T14:34:01.288Z,964.45
2022-10-30T14:36:01.241Z,964.42
2022-10-30T14:37:01.220Z,964.43
2022-10-30T14:38:02.503Z,964.41
2022-10-30T14:39:01.234Z,964.42
2022-10-30T14:40:01.299Z,964.39
2022-10-30T14:41:01.268Z,964.41
2022-10-30T14:42:01.325Z,964.37
2022-10-30T14:43:01.525Z,964.43
2022-10-30T14:44:01.372Z,964.44
2022-10-30T14:45:01.247Z,964.4